createdAt,value
2022-10-08T00:00:01.346Z,48.32
2022-10-08T00:00:11.609Z,48.32
2022-10-08T00:00:21.873Z,48.32
2022-10-08T00:00:32.133Z,48.32
2022-10-08T00:00:42.396Z,48.22
2022-10-08T00:00:52.660Z,48.22
2022-10-08T00:01:02.919Z,48.34
2022-10-08T00:01:13.183Z,48.42
2022-10-08T00:01:23.471Z,48.52
2022-10-08T00:01:33.750Z,48.52
2022-10-08T00:01:44.072Z,48.63
2022-10-08T00:01:54.381Z,48.55
2022-10-08T00:02:04.713Z,48.55
2022-10-08T00:02:15.044Z,48.55
2022-10-08T00:02:25.320Z,48.44
2022-10-08T00:02:35.580Z,48.44
2022-10-08T00:02:46.077Z,48.44
2022-10-08T00:02:56.239Z,48.34
2022-10-08T00:03:06.502Z,48.34
2022-10-08T00:03:16.765Z,48.34
2022-10-08T00:03:27.031Z,48.34
2022-10-08T00:03:37.303Z,48.44
2022-10-08T00:03:47.685Z,48.44
2022-10-08T00:03:58.056Z,48.44
2022-10-08T00:04:08.373Z,48.44
2022-10-08T00:04:18.673Z,48.55
2022-10-08T00:04:28.930Z,48.55
2022-10-08T00:04:39.227Z,48.55
2022-10-08T00:04:49.454Z,48.55
2022-10-08T00:04:59.713Z,48.44
2022-10-08T00:05:09.980Z,48.44
2022-10-08T00:05:20.242Z,48.34
2022-10-08T00:05:30.505Z,48.34
2022-10-08T00:05:40.767Z,48.24
2022-10-08T00:05:51.030Z,48.24
2022-10-08T00:06:01.293Z,48.14
2022-10-08T00:06:11.556Z,48.24
2022-10-08T00:06:21.818Z,48.24
2022-10-08T00:06:32.083Z,48.24
2022-10-08T00:06:42.345Z,48.24
2022-10-08T00:06:52.610Z,48.24
2022-10-08T00:07:02.871Z,48.24
2022-10-08T00:07:13.131Z,48.24
2022-10-08T00:07:23.396Z,48.24
2022-10-08T00:07:33.657Z,48.24
2022-10-08T00:07:43.927Z,48.24
2022-10-08T00:07:54.211Z,48.24
2022-10-08T00:08:04.454Z,48.34
2022-10-08T00:08:14.723Z,48.34
2022-10-08T00:08:24.982Z,48.34
2022-10-08T00:08:35.243Z,48.24
2022-10-08T00:08:45.520Z,48.24
2022-10-08T00:08:55.784Z,48.24
2022-10-08T00:09:06.048Z,48.24
2022-10-08T00:09:16.307Z,48.24
2022-10-08T00:09:26.572Z,48.24
2022-10-08T00:09:36.834Z,48.24
2022-10-08T00:09:47.100Z,48.14
2022-10-08T00:09:57.360Z,48.14
2022-10-08T00:10:07.628Z,48.14
2022-10-08T00:10:17.894Z,48.14
2022-10-08T00:10:28.155Z,48.14
2022-10-08T00:10:38.419Z,48.14
2022-10-08T00:10:48.676Z,48.14
2022-10-08T00:10:58.950Z,48.14
2022-10-08T00:11:09.224Z,48.14
2022-10-08T00:11:19.465Z,48.14
2022-10-08T00:11:29.733Z,48.14
2022-10-08T00:11:40.007Z,48.14
2022-10-08T00:11:50.252Z,48.14
2022-10-08T00:12:00.550Z,48.03
2022-10-08T00:12:10.789Z,48.03
2022-10-08T00:12:21.054Z,48.03
2022-10-08T00:12:31.314Z,48.03
2022-10-08T00:12:41.577Z,48.14
2022-10-08T00:12:51.840Z,48.14
2022-10-08T00:13:02.103Z,48.14
2022-10-08T00:13:12.371Z,48.14
2022-10-08T00:13:22.631Z,48.14
2022-10-08T00:13:32.893Z,48.24
2022-10-08T00:13:43.279Z,48.24
2022-10-08T00:13:53.557Z,48.24
2022-10-08T00:14:03.815Z,48.24
2022-10-08T00:14:14.075Z,48.24
2022-10-08T00:14:24.341Z,48.14
2022-10-08T00:14:34.556Z,48.14
2022-10-08T00:14:44.827Z,48.14
2022-10-08T00:14:55.081Z,48.14
2022-10-08T00:15:05.352Z,48.03
2022-10-08T00:15:15.607Z,48.03
2022-10-08T00:15:25.871Z,48.03
2022-10-08T00:15:36.134Z,48.06
2022-10-08T00:15:46.501Z,48.03
2022-10-08T00:15:56.893Z,48.06
2022-10-08T00:16:07.184Z,47.93
2022-10-08T00:16:17.753Z,47.93
2022-10-08T00:16:27.856Z,48.06
2022-10-08T00:16:38.248Z,48.06
2022-10-08T00:16:48.482Z,48.16
2022-10-08T00:16:58.745Z,48.16
2022-10-08T00:17:09.009Z,48.16
2022-10-08T00:17:19.270Z,48.16
2022-10-08T00:17:29.565Z,48.16
2022-10-08T00:17:39.817Z,48.16
2022-10-08T00:17:50.084Z,48.16
2022-10-08T00:18:00.344Z,48.16
2022-10-08T00:18:10.612Z,48.06
2022-10-08T00:18:20.901Z,48.16
2022-10-08T00:18:31.257Z,48.16
2022-10-08T00:18:41.468Z,48.26
2022-10-08T00:18:51.744Z,48.26
2022-10-08T00:19:02.028Z,48.26
2022-10-08T00:19:12.274Z,48.16
2022-10-08T00:19:22.535Z,48.16
2022-10-08T00:19:32.799Z,48.16
2022-10-08T00:19:43.070Z,48.16
2022-10-08T00:19:53.325Z,48.16
2022-10-08T00:20:03.592Z,48.16
2022-10-08T00:20:13.853Z,48.16
2022-10-08T00:20:24.114Z,48.16
2022-10-08T00:20:34.377Z,48.26
2022-10-08T00:20:44.643Z,48.16
2022-10-08T00:20:54.911Z,48.16
2022-10-08T00:21:05.168Z,48.16
2022-10-08T00:21:15.442Z,48.16
2022-10-08T00:21:25.693Z,48.16
2022-10-08T00:21:35.956Z,48.16
2022-10-08T00:21:46.214Z,48.16
2022-10-08T00:21:56.478Z,48.16
2022-10-08T00:22:06.739Z,48.16
2022-10-08T00:22:17.003Z,48.06
2022-10-08T00:22:27.265Z,48.06
2022-10-08T00:22:37.527Z,48.06
2022-10-08T00:22:48.241Z,48.06
2022-10-08T00:22:58.044Z,48.06
2022-10-08T00:23:08.286Z,48.06
2022-10-08T00:23:18.584Z,48.06
2022-10-08T00:23:28.847Z,47.96
2022-10-08T00:23:39.108Z,48.06
2022-10-08T00:23:49.408Z,48.16
2022-10-08T00:23:59.668Z,48.16
2022-10-08T00:24:09.926Z,48.16
2022-10-08T00:24:20.192Z,48.16
2022-10-08T00:24:30.478Z,48.16
2022-10-08T00:24:40.741Z,48.16
2022-10-08T00:24:50.998Z,48.16
2022-10-08T00:25:01.263Z,48.26
2022-10-08T00:25:11.523Z,48.36
2022-10-08T00:25:21.789Z,48.47
2022-10-08T00:25:32.048Z,48.47
2022-10-08T00:25:42.322Z,48.47
2022-10-08T00:25:52.608Z,48.36
2022-10-08T00:26:02.859Z,48.26
2022-10-08T00:26:13.123Z,48.26
2022-10-08T00:26:23.387Z,48.26
2022-10-08T00:26:33.653Z,48.26
2022-10-08T00:26:44.584Z,48.26
2022-10-08T00:26:54.307Z,48.26
2022-10-08T00:27:04.569Z,48.26
2022-10-08T00:27:14.823Z,48.26
2022-10-08T00:27:25.088Z,48.26
2022-10-08T00:27:35.350Z,48.26
2022-10-08T00:27:45.614Z,48.26
2022-10-08T00:27:55.877Z,48.36
2022-10-08T00:28:06.273Z,48.39
2022-10-08T00:28:16.557Z,48.28
2022-10-08T00:28:26.866Z,48.26
2022-10-08T00:28:37.172Z,48.36
2022-10-08T00:28:47.464Z,48.39
2022-10-08T00:28:57.728Z,48.39
2022-10-08T00:29:07.991Z,48.39
2022-10-08T00:29:18.253Z,48.28
2022-10-08T00:29:28.517Z,48.28
2022-10-08T00:29:38.777Z,48.28
2022-10-08T00:29:49.043Z,48.28
2022-10-08T00:29:59.302Z,48.28
2022-10-08T00:30:09.566Z,48.28
2022-10-08T00:30:19.833Z,48.39
2022-10-08T00:30:30.092Z,48.39
2022-10-08T00:30:40.352Z,48.49
2022-10-08T00:30:50.616Z,48.39
2022-10-08T00:31:00.897Z,48.28
2022-10-08T00:31:11.228Z,48.28
2022-10-08T00:31:21.658Z,48.49
2022-10-08T00:31:32.009Z,48.69
2022-10-08T00:31:42.373Z,48.59
2022-10-08T00:31:52.724Z,48.59
2022-10-08T00:32:03.023Z,48.49
2022-10-08T00:32:13.260Z,48.39
2022-10-08T00:32:23.523Z,48.28
2022-10-08T00:32:33.790Z,48.28
2022-10-08T00:32:44.407Z,48.28
2022-10-08T00:32:59.048Z,48.18
2022-10-08T00:33:05.587Z,48.18
2022-10-08T00:33:14.984Z,48.08
2022-10-08T00:33:25.245Z,48.08
2022-10-08T00:33:35.510Z,48.08
2022-10-08T00:33:45.776Z,48.18
2022-10-08T00:33:56.050Z,48.18
2022-10-08T00:34:06.312Z,48.28
2022-10-08T00:34:16.572Z,48.28
2022-10-08T00:34:26.833Z,48.28
2022-10-08T00:34:37.099Z,48.39
2022-10-08T00:34:47.360Z,48.39
2022-10-08T00:34:57.632Z,48.39
2022-10-08T00:35:07.888Z,48.28
2022-10-08T00:35:18.149Z,48.28
2022-10-08T00:35:28.411Z,48.28
2022-10-08T00:35:38.689Z,48.28
2022-10-08T00:35:48.938Z,48.28
2022-10-08T00:35:59.201Z,48.28
2022-10-08T00:36:09.462Z,48.28
2022-10-08T00:36:19.729Z,48.28
2022-10-08T00:36:29.991Z,48.28
2022-10-08T00:36:40.251Z,48.28
2022-10-08T00:36:50.514Z,48.28
2022-10-08T00:37:00.776Z,48.28
2022-10-08T00:37:11.038Z,48.28
2022-10-08T00:37:21.303Z,48.39
2022-10-08T00:37:31.563Z,48.59
2022-10-08T00:37:41.831Z,48.59
2022-10-08T00:37:52.088Z,48.49
2022-10-08T00:38:02.372Z,48.49
2022-10-08T00:38:12.615Z,48.49
2022-10-08T00:38:22.876Z,48.39
2022-10-08T00:38:33.138Z,48.39
2022-10-08T00:38:43.402Z,48.39
2022-10-08T00:38:53.664Z,48.49
2022-10-08T00:39:03.946Z,48.39
2022-10-08T00:39:14.210Z,48.28
2022-10-08T00:39:24.472Z,48.28
2022-10-08T00:39:34.733Z,48.28
2022-10-08T00:39:44.998Z,48.28
2022-10-08T00:39:55.260Z,48.28
2022-10-08T00:40:05.521Z,48.28
2022-10-08T00:40:15.785Z,48.28
2022-10-08T00:40:26.048Z,48.28
2022-10-08T00:40:36.311Z,48.28
2022-10-08T00:40:46.574Z,48.28
2022-10-08T00:40:56.837Z,48.28
2022-10-08T00:41:07.099Z,48.28
2022-10-08T00:41:17.365Z,48.31
2022-10-08T00:41:27.627Z,48.31
2022-10-08T00:41:37.888Z,48.28
2022-10-08T00:41:48.152Z,48.28
2022-10-08T00:41:58.414Z,48.31
2022-10-08T00:42:08.674Z,48.31
2022-10-08T00:42:18.936Z,48.31
2022-10-08T00:42:29.200Z,48.31
2022-10-08T00:42:39.460Z,48.31
2022-10-08T00:42:49.993Z,48.31
2022-10-08T00:43:00.163Z,48.31
2022-10-08T00:43:10.431Z,48.31
2022-10-08T00:43:23.968Z,48.31
2022-10-08T00:43:31.899Z,48.31
2022-10-08T00:43:41.299Z,48.31
2022-10-08T00:43:51.562Z,48.31
2022-10-08T00:44:01.837Z,48.31
2022-10-08T00:44:12.098Z,48.31
2022-10-08T00:44:22.362Z,48.31
2022-10-08T00:44:32.623Z,48.31
2022-10-08T00:44:42.894Z,48.41
2022-10-08T00:44:53.148Z,48.31
2022-10-08T00:45:03.406Z,48.31
2022-10-08T00:45:13.672Z,48.31
2022-10-08T00:45:23.986Z,48.41
2022-10-08T00:45:34.295Z,48.31
2022-10-08T00:45:44.572Z,48.31
2022-10-08T00:45:54.855Z,48.31
2022-10-08T00:46:05.157Z,48.31
2022-10-08T00:46:15.472Z,48.31
2022-10-08T00:46:25.708Z,48.31
2022-10-08T00:46:35.958Z,48.31
2022-10-08T00:46:46.222Z,48.41
2022-10-08T00:46:56.482Z,48.41
2022-10-08T00:47:06.743Z,48.51
2022-10-08T00:47:17.008Z,48.51
2022-10-08T00:47:27.269Z,48.51
2022-10-08T00:47:37.543Z,48.51
2022-10-08T00:47:47.804Z,48.61
2022-10-08T00:47:58.059Z,48.72
2022-10-08T00:48:08.325Z,48.82
2022-10-08T00:48:18.585Z,48.82
2022-10-08T00:48:28.849Z,48.82
2022-10-08T00:48:39.111Z,48.72
2022-10-08T00:48:49.398Z,48.82
2022-10-08T00:48:59.662Z,48.82
2022-10-08T00:49:09.927Z,48.82
2022-10-08T00:49:20.186Z,48.72
2022-10-08T00:49:30.448Z,48.72
2022-10-08T00:49:40.712Z,48.61
2022-10-08T00:49:50.978Z,48.61
2022-10-08T00:50:01.239Z,48.61
2022-10-08T00:50:11.501Z,48.51
2022-10-08T00:50:21.763Z,48.51
2022-10-08T00:50:32.031Z,48.51
2022-10-08T00:50:42.288Z,48.51
2022-10-08T00:50:52.561Z,48.51
2022-10-08T00:51:02.829Z,48.61
2022-10-08T00:51:13.077Z,48.61
2022-10-08T00:51:23.337Z,48.61
2022-10-08T00:51:33.601Z,48.61
2022-10-08T00:51:43.862Z,48.61
2022-10-08T00:51:54.125Z,48.61
2022-10-08T00:52:04.403Z,48.61
2022-10-08T00:52:14.662Z,48.61
2022-10-08T00:52:24.922Z,48.61
2022-10-08T00:52:35.186Z,48.61
2022-10-08T00:52:45.807Z,48.61
2022-10-08T00:52:55.749Z,48.61
2022-10-08T00:53:06.087Z,48.61
2022-10-08T00:53:16.316Z,48.61
2022-10-08T00:53:26.579Z,48.61
2022-10-08T00:53:36.856Z,48.61
2022-10-08T00:53:47.113Z,48.61
2022-10-08T00:53:57.396Z,48.61
2022-10-08T00:54:07.660Z,48.61
2022-10-08T00:54:17.919Z,48.61
2022-10-08T00:54:28.181Z,48.61
2022-10-08T00:54:38.444Z,48.72
2022-10-08T00:54:48.711Z,48.72
2022-10-08T00:54:58.974Z,48.72
2022-10-08T00:55:09.232Z,48.72
2022-10-08T00:55:19.498Z,48.72
2022-10-08T00:55:29.761Z,48.82
2022-10-08T00:55:43.571Z,48.82
2022-10-08T00:55:50.263Z,48.72
2022-10-08T00:56:00.529Z,48.72
2022-10-08T00:56:10.805Z,48.72
2022-10-08T00:56:21.063Z,48.72
2022-10-08T00:56:31.320Z,48.72
2022-10-08T00:56:41.587Z,48.61
2022-10-08T00:56:51.842Z,48.61
2022-10-08T00:57:02.105Z,48.72
2022-10-08T00:57:12.368Z,48.82
2022-10-08T00:57:22.632Z,48.82
2022-10-08T00:57:32.900Z,48.82
2022-10-08T00:57:43.155Z,48.82
2022-10-08T00:57:53.417Z,48.82
2022-10-08T00:58:03.680Z,48.92
2022-10-08T00:58:13.942Z,49.02
2022-10-08T00:58:24.205Z,49.02
2022-10-08T00:58:34.475Z,49.02
2022-10-08T00:58:44.731Z,48.92
2022-10-08T00:58:54.990Z,48.92
2022-10-08T00:59:05.270Z,49.02
2022-10-08T00:59:15.538Z,49.02
2022-10-08T00:59:25.799Z,49.02
2022-10-08T00:59:36.066Z,49.02
2022-10-08T00:59:46.326Z,49.02
2022-10-08T00:59:56.595Z,49.02
2022-10-08T01:00:06.853Z,49.02
2022-10-08T01:00:17.114Z,48.94
2022-10-08T01:00:27.378Z,48.92
2022-10-08T01:00:37.708Z,48.94
2022-10-08T01:00:48.020Z,48.92
2022-10-08T01:00:58.312Z,48.94
2022-10-08T01:01:08.680Z,48.94
2022-10-08T01:01:18.822Z,48.94
2022-10-08T01:01:29.086Z,48.94
2022-10-08T01:01:39.346Z,49.05
2022-10-08T01:01:49.703Z,49.05
2022-10-08T01:01:59.968Z,49.05
2022-10-08T01:02:10.279Z,49.05
2022-10-08T01:02:20.583Z,49.05
2022-10-08T01:02:30.892Z,49.05
2022-10-08T01:02:41.266Z,48.94
2022-10-08T01:02:51.489Z,49.05
2022-10-08T01:03:01.749Z,49.05
2022-10-08T01:03:12.021Z,49.05
2022-10-08T01:03:22.278Z,49.05
2022-10-08T01:03:32.537Z,49.05
2022-10-08T01:03:42.800Z,49.05
2022-10-08T01:03:53.062Z,49.15
2022-10-08T01:04:03.337Z,49.15
2022-10-08T01:04:13.609Z,49.05
2022-10-08T01:04:23.878Z,49.15
2022-10-08T01:04:34.135Z,49.15
2022-10-08T01:04:44.400Z,49.15
2022-10-08T01:04:54.658Z,49.15
2022-10-08T01:05:04.920Z,49.15
2022-10-08T01:05:15.191Z,49.15
2022-10-08T01:05:25.463Z,49.15
2022-10-08T01:05:35.706Z,49.15
2022-10-08T01:05:45.966Z,49.15
2022-10-08T01:05:56.234Z,49.15
2022-10-08T01:06:06.493Z,49.15
2022-10-08T01:06:16.758Z,49.15
2022-10-08T01:06:27.022Z,49.26
2022-10-08T01:06:37.282Z,49.26
2022-10-08T01:06:47.544Z,49.15
2022-10-08T01:06:57.826Z,49.26
2022-10-08T01:07:08.071Z,49.56
2022-10-08T01:07:18.337Z,49.87
2022-10-08T01:07:28.594Z,49.87
2022-10-08T01:07:38.860Z,49.56
2022-10-08T01:07:49.118Z,49.46
2022-10-08T01:07:59.383Z,49.35
2022-10-08T01:08:09.667Z,49.26
2022-10-08T01:08:19.908Z,49.35
2022-10-08T01:08:30.170Z,49.35
2022-10-08T01:08:40.434Z,49.26
2022-10-08T01:08:50.695Z,49.15
2022-10-08T01:09:00.976Z,49.26
2022-10-08T01:09:15.222Z,49.26
2022-10-08T01:09:22.470Z,49.35
2022-10-08T01:09:31.854Z,49.35
2022-10-08T01:09:42.120Z,49.35
2022-10-08T01:09:52.380Z,49.26
2022-10-08T01:10:02.644Z,49.26
2022-10-08T01:10:12.908Z,49.26
2022-10-08T01:10:23.167Z,49.26
2022-10-08T01:10:33.428Z,49.26
2022-10-08T01:10:43.690Z,49.26
2022-10-08T01:10:53.957Z,49.35
2022-10-08T01:11:04.217Z,49.26
2022-10-08T01:11:14.478Z,49.26
2022-10-08T01:11:24.742Z,49.26
2022-10-08T01:11:35.003Z,49.35
2022-10-08T01:11:45.267Z,49.35
2022-10-08T01:11:55.529Z,49.35
2022-10-08T01:12:05.793Z,49.35
2022-10-08T01:12:16.054Z,49.35
2022-10-08T01:12:26.316Z,49.35
2022-10-08T01:12:36.578Z,49.35
2022-10-08T01:12:47.101Z,49.35
2022-10-08T01:12:57.222Z,49.46
2022-10-08T01:13:07.483Z,49.77
2022-10-08T01:13:17.747Z,49.97
2022-10-08T01:13:28.008Z,49.87
2022-10-08T01:13:38.270Z,49.77
2022-10-08T01:13:48.533Z,49.66
2022-10-08T01:13:58.795Z,49.56
2022-10-08T01:14:09.072Z,49.56
2022-10-08T01:14:19.337Z,49.46
2022-10-08T01:14:29.634Z,49.46
2022-10-08T01:14:39.893Z,49.56
2022-10-08T01:14:50.157Z,49.56
2022-10-08T01:15:00.413Z,49.56
2022-10-08T01:15:10.688Z,49.56
2022-10-08T01:15:20.946Z,49.46
2022-10-08T01:15:31.210Z,49.46
2022-10-08T01:15:41.473Z,49.46
2022-10-08T01:15:51.759Z,49.46
2022-10-08T01:16:02.096Z,49.46
2022-10-08T01:16:12.422Z,49.46
2022-10-08T01:16:22.723Z,49.46
2022-10-08T01:16:33.072Z,49.56
2022-10-08T01:16:43.428Z,49.77
2022-10-08T01:16:53.662Z,49.77
2022-10-08T01:17:03.924Z,49.77
2022-10-08T01:17:14.199Z,49.66
2022-10-08T01:17:24.445Z,49.66
2022-10-08T01:17:34.710Z,49.66
2022-10-08T01:17:44.971Z,49.66
2022-10-08T01:17:55.233Z,49.66
2022-10-08T01:18:05.495Z,49.66
2022-10-08T01:18:15.758Z,49.66
2022-10-08T01:18:26.020Z,49.66
2022-10-08T01:18:36.283Z,49.66
2022-10-08T01:18:46.548Z,49.56
2022-10-08T01:18:56.808Z,49.56
2022-10-08T01:19:07.082Z,49.56
2022-10-08T01:19:17.346Z,49.56
2022-10-08T01:19:27.609Z,49.56
2022-10-08T01:19:37.874Z,49.56
2022-10-08T01:19:48.135Z,49.77
2022-10-08T01:19:58.405Z,49.77
2022-10-08T01:20:08.661Z,49.77
2022-10-08T01:20:18.923Z,49.66
2022-10-08T01:20:29.184Z,49.66
2022-10-08T01:20:39.449Z,49.66
2022-10-08T01:20:49.709Z,49.66
2022-10-08T01:20:59.975Z,49.66
2022-10-08T01:21:10.241Z,49.66
2022-10-08T01:21:20.495Z,49.66
2022-10-08T01:21:30.759Z,49.66
2022-10-08T01:21:41.019Z,49.79
2022-10-08T01:21:51.281Z,49.87
2022-10-08T01:22:01.543Z,50.10
2022-10-08T01:22:11.804Z,50.20
2022-10-08T01:22:22.068Z,50.10
2022-10-08T01:22:32.331Z,50.07
2022-10-08T01:22:42.602Z,50.18
2022-10-08T01:22:52.870Z,50.18
2022-10-08T01:23:03.118Z,50.10
2022-10-08T01:23:13.401Z,49.99
2022-10-08T01:23:23.643Z,49.99
2022-10-08T01:23:33.908Z,49.99
2022-10-08T01:23:44.170Z,49.99
2022-10-08T01:23:54.431Z,49.99
2022-10-08T01:24:04.715Z,50.20
2022-10-08T01:24:14.987Z,50.82
2022-10-08T01:24:25.257Z,51.53
2022-10-08T01:24:35.504Z,51.43
2022-10-08T01:24:45.771Z,51.43
2022-10-08T01:24:56.043Z,51.33
2022-10-08T01:25:06.304Z,51.12
2022-10-08T01:25:16.563Z,50.92
2022-10-08T01:25:26.834Z,50.82
2022-10-08T01:25:37.109Z,50.61
2022-10-08T01:25:47.362Z,50.40
2022-10-08T01:25:57.624Z,50.30
2022-10-08T01:26:07.911Z,50.40
2022-10-08T01:26:18.160Z,50.71
2022-10-08T01:26:28.428Z,52.25
2022-10-08T01:26:38.686Z,52.66
2022-10-08T01:26:48.975Z,52.36
2022-10-08T01:26:59.221Z,51.84
2022-10-08T01:27:09.484Z,51.43
2022-10-08T01:27:19.745Z,51.23
2022-10-08T01:27:30.007Z,51.12
2022-10-08T01:27:40.269Z,50.92
2022-10-08T01:27:50.535Z,50.82
2022-10-08T01:28:00.959Z,50.82
2022-10-08T01:28:11.110Z,50.92
2022-10-08T01:28:21.563Z,51.12
2022-10-08T01:28:31.728Z,51.43
2022-10-08T01:28:42.035Z,51.43
2022-10-08T01:28:52.279Z,51.23
2022-10-08T01:29:02.533Z,51.12
2022-10-08T01:29:12.837Z,51.02
2022-10-08T01:29:23.098Z,51.02
2022-10-08T01:29:33.358Z,51.02
2022-10-08T01:29:43.624Z,51.12
2022-10-08T01:29:53.882Z,51.33
2022-10-08T01:30:04.147Z,51.33
2022-10-08T01:30:14.408Z,51.43
2022-10-08T01:30:24.673Z,51.33
2022-10-08T01:30:34.937Z,51.12
2022-10-08T01:30:45.199Z,51.12
2022-10-08T01:30:55.460Z,51.02
2022-10-08T01:31:05.755Z,51.02
2022-10-08T01:31:16.044Z,51.02
2022-10-08T01:31:26.366Z,51.02
2022-10-08T01:31:36.727Z,51.02
2022-10-08T01:31:47.108Z,51.12
2022-10-08T01:31:57.424Z,51.43
2022-10-08T01:32:07.693Z,51.53
2022-10-08T01:32:17.952Z,51.53
2022-10-08T01:32:28.219Z,51.53
2022-10-08T01:32:38.481Z,51.53
2022-10-08T01:32:49.139Z,51.53
2022-10-08T01:32:59.055Z,51.74
2022-10-08T01:33:09.321Z,51.64
2022-10-08T01:33:19.580Z,51.33
2022-10-08T01:33:29.843Z,51.23
2022-10-08T01:33:40.107Z,51.33
2022-10-08T01:33:50.386Z,51.43
2022-10-08T01:34:00.644Z,51.43
2022-10-08T01:34:10.907Z,51.53
2022-10-08T01:34:21.283Z,51.43
2022-10-08T01:34:31.551Z,51.33
2022-10-08T01:34:41.804Z,51.23
2022-10-08T01:34:52.074Z,51.23
2022-10-08T01:35:02.330Z,51.12
2022-10-08T01:35:12.595Z,51.02
2022-10-08T01:35:22.856Z,51.02
2022-10-08T01:35:33.121Z,51.02
2022-10-08T01:35:43.378Z,51.02
2022-10-08T01:35:53.641Z,51.02
2022-10-08T01:36:03.907Z,51.23
2022-10-08T01:36:14.169Z,51.23
2022-10-08T01:36:24.432Z,51.12
2022-10-08T01:36:34.694Z,51.12
2022-10-08T01:36:44.963Z,51.33
2022-10-08T01:36:55.223Z,51.33
2022-10-08T01:37:05.482Z,51.33
2022-10-08T01:37:15.745Z,51.23
2022-10-08T01:37:26.008Z,51.23
2022-10-08T01:37:36.271Z,51.12
2022-10-08T01:37:46.535Z,51.12
2022-10-08T01:37:56.796Z,51.23
2022-10-08T01:38:07.068Z,51.23
2022-10-08T01:38:17.339Z,51.23
2022-10-08T01:38:27.582Z,51.23
2022-10-08T01:38:37.845Z,51.33
2022-10-08T01:38:48.122Z,51.43
2022-10-08T01:38:58.396Z,51.64
2022-10-08T01:39:08.660Z,51.84
2022-10-08T01:39:18.912Z,51.74
2022-10-08T01:39:29.170Z,51.53
2022-10-08T01:39:39.448Z,51.43
2022-10-08T01:39:49.715Z,51.43
2022-10-08T01:39:59.998Z,51.33
2022-10-08T01:40:10.250Z,51.43
2022-10-08T01:40:20.504Z,51.64
2022-10-08T01:40:30.762Z,51.74
2022-10-08T01:40:41.035Z,51.84
2022-10-08T01:40:51.298Z,51.74
2022-10-08T01:41:01.561Z,51.64
2022-10-08T01:41:11.824Z,51.53
2022-10-08T01:41:22.108Z,51.43
2022-10-08T01:41:32.367Z,51.43
2022-10-08T01:41:42.632Z,51.43
2022-10-08T01:41:52.892Z,51.43
2022-10-08T01:42:03.167Z,51.64
2022-10-08T01:42:13.419Z,51.74
2022-10-08T01:42:23.681Z,51.84
2022-10-08T01:42:33.944Z,51.95
2022-10-08T01:42:44.409Z,51.84
2022-10-08T01:42:54.552Z,51.74
2022-10-08T01:43:04.846Z,51.95
2022-10-08T01:43:15.115Z,52.46
2022-10-08T01:43:25.384Z,52.66
2022-10-08T01:43:35.631Z,52.66
2022-10-08T01:43:45.919Z,52.76
2022-10-08T01:43:56.183Z,53.08
2022-10-08T01:44:06.447Z,53.08
2022-10-08T01:44:16.722Z,52.97
2022-10-08T01:44:26.983Z,53.08
2022-10-08T01:44:37.237Z,52.97
2022-10-08T01:44:47.516Z,53.08
2022-10-08T01:44:57.771Z,53.38
2022-10-08T01:45:08.034Z,53.38
2022-10-08T01:45:18.320Z,53.28
2022-10-08T01:45:28.655Z,52.97
2022-10-08T01:45:39.005Z,52.66
2022-10-08T01:45:49.338Z,52.46
2022-10-08T01:45:59.694Z,52.36
2022-10-08T01:46:10.033Z,52.25
2022-10-08T01:46:20.295Z,52.36
2022-10-08T01:46:30.560Z,52.66
2022-10-08T01:46:40.823Z,52.87
2022-10-08T01:46:51.081Z,53.08
2022-10-08T01:47:01.349Z,52.87
2022-10-08T01:47:11.610Z,52.87
2022-10-08T01:47:21.870Z,52.97
2022-10-08T01:47:32.132Z,53.08
2022-10-08T01:47:42.396Z,52.97
2022-10-08T01:47:52.660Z,52.76
2022-10-08T01:48:02.921Z,52.66
2022-10-08T01:48:13.186Z,52.66
2022-10-08T01:48:23.447Z,52.66
2022-10-08T01:48:33.712Z,52.56
2022-10-08T01:48:43.974Z,52.56
2022-10-08T01:48:54.250Z,52.46
2022-10-08T01:49:04.510Z,52.46
2022-10-08T01:49:14.784Z,52.46
2022-10-08T01:49:25.040Z,52.56
2022-10-08T01:49:35.300Z,52.56
2022-10-08T01:49:45.568Z,52.56
2022-10-08T01:49:55.829Z,52.46
2022-10-08T01:50:06.091Z,52.36
2022-10-08T01:50:16.362Z,52.36
2022-10-08T01:50:26.627Z,52.36
2022-10-08T01:50:36.887Z,52.36
2022-10-08T01:50:47.151Z,53.28
2022-10-08T01:50:57.415Z,54.72
2022-10-08T01:51:07.679Z,55.23
2022-10-08T01:51:17.937Z,55.43
2022-10-08T01:51:28.200Z,55.43
2022-10-08T01:51:38.463Z,55.43
2022-10-08T01:51:48.744Z,55.02
2022-10-08T01:51:59.017Z,54.51
2022-10-08T01:52:09.276Z,54.21
2022-10-08T01:52:19.538Z,54.00
2022-10-08T01:52:29.802Z,53.89
2022-10-08T01:52:40.066Z,53.79
2022-10-08T01:52:50.459Z,53.69
2022-10-08T01:53:00.736Z,53.69
2022-10-08T01:53:10.995Z,53.49
2022-10-08T01:53:21.276Z,53.28
2022-10-08T01:53:31.519Z,53.17
2022-10-08T01:53:41.804Z,53.38
2022-10-08T01:53:52.061Z,53.59
2022-10-08T01:54:02.325Z,53.69
2022-10-08T01:54:12.593Z,53.69
2022-10-08T01:54:22.869Z,53.59
2022-10-08T01:54:33.125Z,53.59
2022-10-08T01:54:43.378Z,53.38
2022-10-08T01:54:53.639Z,53.28
2022-10-08T01:55:03.898Z,53.17
2022-10-08T01:55:14.161Z,53.08
2022-10-08T01:55:24.423Z,52.97
2022-10-08T01:55:34.684Z,52.89
2022-10-08T01:55:44.947Z,52.87
2022-10-08T01:55:55.210Z,52.87
2022-10-08T01:56:05.470Z,52.79
2022-10-08T01:56:15.739Z,52.76
2022-10-08T01:56:25.994Z,52.89
2022-10-08T01:56:36.261Z,52.87
2022-10-08T01:56:46.539Z,52.76
2022-10-08T01:56:56.790Z,52.76
2022-10-08T01:57:07.052Z,52.76
2022-10-08T01:57:17.317Z,52.76
2022-10-08T01:57:27.577Z,52.66
2022-10-08T01:57:37.839Z,52.56
2022-10-08T01:57:48.101Z,52.59
2022-10-08T01:57:58.377Z,52.59
2022-10-08T01:58:08.637Z,52.56
2022-10-08T01:58:18.913Z,52.59
2022-10-08T01:58:29.173Z,52.69
2022-10-08T01:58:39.438Z,52.69
2022-10-08T01:58:49.698Z,52.59
2022-10-08T01:58:59.958Z,52.59
2022-10-08T01:59:10.237Z,52.59
2022-10-08T01:59:20.499Z,52.59
2022-10-08T01:59:30.765Z,52.48
2022-10-08T01:59:41.053Z,52.48
2022-10-08T01:59:51.303Z,52.48
2022-10-08T02:00:01.570Z,52.38
2022-10-08T02:00:11.839Z,52.38
2022-10-08T02:00:22.101Z,52.38
2022-10-08T02:00:32.378Z,52.38
2022-10-08T02:00:42.672Z,52.48
2022-10-08T02:00:52.963Z,52.38
2022-10-08T02:01:03.302Z,52.48
2022-10-08T02:01:13.664Z,52.59
2022-10-08T02:01:24.040Z,52.59
2022-10-08T02:01:34.372Z,52.69
2022-10-08T02:01:44.674Z,52.69
2022-10-08T02:01:54.968Z,52.69
2022-10-08T02:02:05.228Z,52.69
2022-10-08T02:02:15.504Z,52.59
2022-10-08T02:02:25.813Z,52.59
2022-10-08T02:02:36.126Z,52.59
2022-10-08T02:02:46.585Z,52.59
2022-10-08T02:02:56.745Z,52.59
2022-10-08T02:03:06.993Z,52.69
2022-10-08T02:03:17.262Z,52.69
2022-10-08T02:03:27.550Z,52.69
2022-10-08T02:03:37.818Z,52.79
2022-10-08T02:03:48.210Z,52.79
2022-10-08T02:03:58.470Z,52.69
2022-10-08T02:04:08.695Z,52.69
2022-10-08T02:04:18.955Z,52.69
2022-10-08T02:04:29.219Z,52.69
2022-10-08T02:04:39.478Z,52.69
2022-10-08T02:04:49.784Z,52.69
2022-10-08T02:05:00.026Z,52.69
2022-10-08T02:05:10.289Z,52.69
2022-10-08T02:05:20.555Z,52.89
2022-10-08T02:05:30.829Z,53.30
2022-10-08T02:05:41.117Z,53.61
2022-10-08T02:05:51.365Z,53.61
2022-10-08T02:06:01.625Z,54.33
2022-10-08T02:06:11.902Z,54.85
2022-10-08T02:06:22.161Z,55.26
2022-10-08T02:06:32.416Z,55.46
2022-10-08T02:06:42.679Z,55.36
2022-10-08T02:06:52.953Z,55.15
2022-10-08T02:07:03.223Z,54.95
2022-10-08T02:07:13.478Z,54.74
2022-10-08T02:07:23.761Z,55.98
2022-10-08T02:07:34.004Z,56.49
2022-10-08T02:07:44.265Z,56.08
2022-10-08T02:07:54.533Z,55.46
2022-10-08T02:08:04.793Z,54.95
2022-10-08T02:08:15.061Z,54.53
2022-10-08T02:08:25.366Z,54.53
2022-10-08T02:08:35.605Z,54.43
2022-10-08T02:08:45.873Z,54.23
2022-10-08T02:08:56.129Z,54.13
2022-10-08T02:09:06.392Z,54.23
2022-10-08T02:09:16.704Z,54.53
2022-10-08T02:09:27.097Z,54.33
2022-10-08T02:09:37.339Z,54.13
2022-10-08T02:09:48.280Z,54.02
2022-10-08T02:09:57.895Z,53.92
2022-10-08T02:10:08.156Z,53.92
2022-10-08T02:10:18.422Z,54.02
2022-10-08T02:10:28.695Z,54.13
2022-10-08T02:10:38.947Z,54.33
2022-10-08T02:10:49.209Z,54.53
2022-10-08T02:10:59.474Z,54.74
2022-10-08T02:11:09.737Z,54.74
2022-10-08T02:11:20.003Z,55.15
2022-10-08T02:11:30.262Z,55.36
2022-10-08T02:11:40.526Z,55.57
2022-10-08T02:11:50.789Z,55.36
2022-10-08T02:12:01.050Z,55.15
2022-10-08T02:12:11.316Z,55.05